Pagina principale
METAR-TAF:

METAR-TAF

Aeroporti :

Mafikeng, Sudafrica

latitudine: 25-47S, longitudine: 025-32E, altezza: 1281 m

Osservazione

Il bollettino è stato emesso 22 minuti fa, alle 11:00 UTC
Vento 2 kt da nord
Temperature 20°C
Umidità 15%
Pressione 1022 hPa
Visibilità 10 km o più
nessuna nube inferiore a 1500 m e nessun cumulonembo

METAR: FAMM 241100Z 35002KT CAVOK 20/M07 Q1022 NOSIG

Ora: 13:22 (11:22 UTC)

Previsione

Il bollettino è stato emesso 2 ore e 22 minuti fa, alle 09:00 UTC
Previsione valida dal 24 alle 10 UTC al 24 alle 18 UTC
Vento 3 kt da direzioni variabili
Visibilità 10 km o più
nessuna nube inferiore a 1500 m e nessun cumulonembo

TAF: FAMM 240900Z 2410/2418 VRB03KT CAVOK TX22/2413Z TN07/2418Z

Osservazioni e previsioni meteorologiche di più di 4000 aeroporti (messaggi METAR e TAF).

Le stazioni disponibili sono rappresentate dai dischi gialli e rossi sulla carta.

Puntare il mouse per vedere il nome della stazione.

Clicca sopra per visualizzare le osservazioni e previsioni meteorologiche.

Per cambiare la mappa : fare clic sui pulsanti verdi con una croce nera per ingrandire, il pulsante verde con un trattino per diminuire, o sulla freccia verde per le mappe adiacenti.


METAR-TAF: